sensor_id;sensor_type;location;lat;lon;timestamp;temperature;humidity
71177;DHT22;58877;51.992;4.504;2022-09-21T00:00:51;14.23;78.51
71177;DHT22;58877;51.992;4.504;2022-09-21T00:03:17;14.27;78.49
71177;DHT22;58877;51.992;4.504;2022-09-21T00:05:43;14.25;78.72
71177;DHT22;58877;51.992;4.504;2022-09-21T00:08:11;14.25;78.99
71177;DHT22;58877;51.992;4.504;2022-09-21T00:10:38;14.23;79.26
71177;DHT22;58877;51.992;4.504;2022-09-21T00:13:04;14.24;79.10
71177;DHT22;58877;51.992;4.504;2022-09-21T00:15:31;14.31;78.14
71177;DHT22;58877;51.992;4.504;2022-09-21T00:17:59;14.40;77.38
71177;DHT22;58877;51.992;4.504;2022-09-21T00:20:26;14.44;77.31
71177;DHT22;58877;51.992;4.504;2022-09-21T00:22:52;14.42;77.61
71177;DHT22;58877;51.992;4.504;2022-09-21T00:25:18;14.33;78.14
71177;DHT22;58877;51.992;4.504;2022-09-21T00:27:45;14.30;78.51
71177;DHT22;58877;51.992;4.504;2022-09-21T00:30:13;14.27;78.70
71177;DHT22;58877;51.992;4.504;2022-09-21T00:32:39;14.24;79.03
71177;DHT22;58877;51.992;4.504;2022-09-21T00:35:05;14.20;79.28
71177;DHT22;58877;51.992;4.504;2022-09-21T00:37:33;14.18;79.36
71177;DHT22;58877;51.992;4.504;2022-09-21T00:39:59;14.17;79.55
71177;DHT22;58877;51.992;4.504;2022-09-21T00:42:29;14.17;79.73
71177;DHT22;58877;51.992;4.504;2022-09-21T00:44:55;14.13;79.83
71177;DHT22;58877;51.992;4.504;2022-09-21T00:47:32;14.11;79.86
71177;DHT22;58877;51.992;4.504;2022-09-21T00:50:05;14.09;79.95
71177;DHT22;58877;51.992;4.504;2022-09-21T00:52:40;14.06;79.89
71177;DHT22;58877;51.992;4.504;2022-09-21T00:57:45;14.03;79.99
71177;DHT22;58877;51.992;4.504;2022-09-21T01:00:11;14.01;80.03
71177;DHT22;58877;51.992;4.504;2022-09-21T01:02:37;14.00;80.02
71177;DHT22;58877;51.992;4.504;2022-09-21T01:05:05;13.96;80.02
71177;DHT22;58877;51.992;4.504;2022-09-21T01:07:35;13.90;80.11
71177;DHT22;58877;51.992;4.504;2022-09-21T01:10:10;13.86;80.18
71177;DHT22;58877;51.992;4.504;2022-09-21T01:15:44;13.74;80.07
71177;DHT22;58877;51.992;4.504;2022-09-21T01:18:19;13.63;79.54
71177;DHT22;58877;51.992;4.504;2022-09-21T01:29:22;13.38;80.23
71177;DHT22;58877;51.992;4.504;2022-09-21T01:32:07;13.36;80.36
71177;DHT22;58877;51.992;4.504;2022-09-21T01:34:58;13.25;80.20
71177;DHT22;58877;51.992;4.504;2022-09-21T01:37:34;13.18;80.17
71177;DHT22;58877;51.992;4.504;2022-09-21T01:40:13;13.12;80.05
71177;DHT22;58877;51.992;4.504;2022-09-21T01:42:45;13.06;79.87
71177;DHT22;58877;51.992;4.504;2022-09-21T01:45:15;12.99;79.93
71177;DHT22;58877;51.992;4.504;2022-09-21T01:47:46;12.91;80.07
71177;DHT22;58877;51.992;4.504;2022-09-21T01:50:16;12.87;80.02
71177;DHT22;58877;51.992;4.504;2022-09-21T01:52:47;12.80;80.20
71177;DHT22;58877;51.992;4.504;2022-09-21T01:55:22;12.75;80.36
71177;DHT22;58877;51.992;4.504;2022-09-21T02:00:37;12.65;80.68
71177;DHT22;58877;51.992;4.504;2022-09-21T02:03:11;12.63;80.83
71177;DHT22;58877;51.992;4.504;2022-09-21T02:05:42;12.57;81.01
71177;DHT22;58877;51.992;4.504;2022-09-21T02:08:09;12.58;81.18
71177;DHT22;58877;51.992;4.504;2022-09-21T02:10:49;12.61;81.34
71177;DHT22;58877;51.992;4.504;2022-09-21T02:13:17;12.61;81.43
71177;DHT22;58877;51.992;4.504;2022-09-21T02:21:15;12.84;80.98
71177;DHT22;58877;51.992;4.504;2022-09-21T02:23:57;12.99;80.57
71177;DHT22;58877;51.992;4.504;2022-09-21T02:26:39;13.05;80.19
71177;DHT22;58877;51.992;4.504;2022-09-21T02:35:44;12.99;80.85
71177;DHT22;58877;51.992;4.504;2022-09-21T02:46:25;12.63;80.63
71177;DHT22;58877;51.992;4.504;2022-09-21T02:48:59;12.75;80.92
71177;DHT22;58877;51.992;4.504;2022-09-21T02:51:33;12.85;80.82
71177;DHT22;58877;51.992;4.504;2022-09-21T02:54:04;12.89;80.58
71177;DHT22;58877;51.992;4.504;2022-09-21T02:56:31;12.84;80.39
71177;DHT22;58877;51.992;4.504;2022-09-21T02:59:02;12.96;79.91
71177;DHT22;58877;51.992;4.504;2022-09-21T03:01:30;12.94;79.98
71177;DHT22;58877;51.992;4.504;2022-09-21T03:03:57;12.87;80.32
71177;DHT22;58877;51.992;4.504;2022-09-21T03:06:22;12.74;80.29
71177;DHT22;58877;51.992;4.504;2022-09-21T03:08:51;12.54;80.30
71177;DHT22;58877;51.992;4.504;2022-09-21T03:11:18;12.38;80.63
71177;DHT22;58877;51.992;4.504;2022-09-21T03:13:44;12.26;80.71
71177;DHT22;58877;51.992;4.504;2022-09-21T03:16:11;12.20;80.90
71177;DHT22;58877;51.992;4.504;2022-09-21T03:18:36;12.14;80.96
71177;DHT22;58877;51.992;4.504;2022-09-21T03:21:03;12.07;81.11
71177;DHT22;58877;51.992;4.504;2022-09-21T03:23:29;12.03;81.03
71177;DHT22;58877;51.992;4.504;2022-09-21T03:25:54;11.96;81.19
71177;DHT22;58877;51.992;4.504;2022-09-21T03:28:21;11.94;81.02
71177;DHT22;58877;51.992;4.504;2022-09-21T03:30:48;11.93;81.13
71177;DHT22;58877;51.992;4.504;2022-09-21T03:33:15;12.01;80.84
71177;DHT22;58877;51.992;4.504;2022-09-21T03:35:41;12.06;80.93
71177;DHT22;58877;51.992;4.504;2022-09-21T03:38:07;12.07;80.64
71177;DHT22;58877;51.992;4.504;2022-09-21T03:40:33;12.03;80.56
71177;DHT22;58877;51.992;4.504;2022-09-21T03:42:58;12.01;80.80
71177;DHT22;58877;51.992;4.504;2022-09-21T03:45:24;11.91;80.55
71177;DHT22;58877;51.992;4.504;2022-09-21T03:48:00;11.77;80.78
71177;DHT22;58877;51.992;4.504;2022-09-21T03:50:27;11.67;81.02
71177;DHT22;58877;51.992;4.504;2022-09-21T03:52:56;11.65;81.03
71177;DHT22;58877;51.992;4.504;2022-09-21T03:55:23;11.67;80.97
71177;DHT22;58877;51.992;4.504;2022-09-21T03:57:48;11.73;80.73
71177;DHT22;58877;51.992;4.504;2022-09-21T04:00:15;11.73;80.69
71177;DHT22;58877;51.992;4.504;2022-09-21T04:02:40;11.72;80.64
71177;DHT22;58877;51.992;4.504;2022-09-21T04:05:11;11.66;80.54
71177;DHT22;58877;51.992;4.504;2022-09-21T04:07:40;11.55;80.67
71177;DHT22;58877;51.992;4.504;2022-09-21T04:10:09;11.39;81.05
71177;DHT22;58877;51.992;4.504;2022-09-21T04:12:42;11.29;81.80
71177;DHT22;58877;51.992;4.504;2022-09-21T04:15:17;11.24;81.57
71177;DHT22;58877;51.992;4.504;2022-09-21T04:17:50;11.22;81.77
71177;DHT22;58877;51.992;4.504;2022-09-21T04:20:16;11.24;81.81
71177;DHT22;58877;51.992;4.504;2022-09-21T04:22:41;11.29;81.87
71177;DHT22;58877;51.992;4.504;2022-09-21T04:25:08;11.36;81.71
71177;DHT22;58877;51.992;4.504;2022-09-21T04:27:34;11.40;81.79
71177;DHT22;58877;51.992;4.504;2022-09-21T04:29:59;11.43;81.91
71177;DHT22;58877;51.992;4.504;2022-09-21T04:32:25;11.51;82.14
71177;DHT22;58877;51.992;4.504;2022-09-21T04:34:50;11.56;82.39
71177;DHT22;58877;51.992;4.504;2022-09-21T04:37:16;11.62;82.51
71177;DHT22;58877;51.992;4.504;2022-09-21T04:39:42;11.69;82.44
71177;DHT22;58877;51.992;4.504;2022-09-21T04:42:09;11.72;82.61
71177;DHT22;58877;51.992;4.504;2022-09-21T04:44:35;11.77;82.74
71177;DHT22;58877;51.992;4.504;2022-09-21T04:47:01;11.80;82.78
71177;DHT22;58877;51.992;4.504;2022-09-21T04:49:26;11.87;82.79
71177;DHT22;58877;51.992;4.504;2022-09-21T04:51:52;11.93;82.83
71177;DHT22;58877;51.992;4.504;2022-09-21T04:54:18;11.94;82.82
71177;DHT22;58877;51.992;4.504;2022-09-21T04:56:43;11.94;82.77
71177;DHT22;58877;51.992;4.504;2022-09-21T04:59:09;12.03;82.50
71177;DHT22;58877;51.992;4.504;2022-09-21T05:01:35;12.01;82.17
71177;DHT22;58877;51.992;4.504;2022-09-21T05:04:01;11.97;82.28
71177;DHT22;58877;51.992;4.504;2022-09-21T05:06:31;11.93;82.30
71177;DHT22;58877;51.992;4.504;2022-09-21T05:08:57;11.90;82.23
71177;DHT22;58877;51.992;4.504;2022-09-21T05:11:42;11.83;82.13
71177;DHT22;58877;51.992;4.504;2022-09-21T05:14:11;11.82;82.09
71177;DHT22;58877;51.992;4.504;2022-09-21T05:16:37;11.77;82.13
71177;DHT22;58877;51.992;4.504;2022-09-21T05:19:03;11.76;82.11
71177;DHT22;58877;51.992;4.504;2022-09-21T05:21:29;11.77;82.04
71177;DHT22;58877;51.992;4.504;2022-09-21T05:23:56;11.82;82.05
71177;DHT22;58877;51.992;4.504;2022-09-21T05:26:22;11.80;81.86
71177;DHT22;58877;51.992;4.504;2022-09-21T05:28:48;11.73;81.98
71177;DHT22;58877;51.992;4.504;2022-09-21T05:34:07;11.62;82.12
71177;DHT22;58877;51.992;4.504;2022-09-21T05:39:23;11.61;82.10
71177;DHT22;58877;51.992;4.504;2022-09-21T05:41:49;11.59;82.53
71177;DHT22;58877;51.992;4.504;2022-09-21T05:44:21;11.62;82.32
71177;DHT22;58877;51.992;4.504;2022-09-21T05:49:48;11.69;82.70
71177;DHT22;58877;51.992;4.504;2022-09-21T05:58:08;11.90;82.96
71177;DHT22;58877;51.992;4.504;2022-09-21T06:00:53;11.93;82.46
71177;DHT22;58877;51.992;4.504;2022-09-21T06:03:25;11.97;82.37
71177;DHT22;58877;51.992;4.504;2022-09-21T06:05:52;12.00;82.42
71177;DHT22;58877;51.992;4.504;2022-09-21T06:08:20;12.03;82.40
71177;DHT22;58877;51.992;4.504;2022-09-21T06:10:47;12.10;82.40
71177;DHT22;58877;51.992;4.504;2022-09-21T06:13:13;12.14;82.46
71177;DHT22;58877;51.992;4.504;2022-09-21T06:15:39;12.19;82.37
71177;DHT22;58877;51.992;4.504;2022-09-21T06:18:05;12.27;82.31
71177;DHT22;58877;51.992;4.504;2022-09-21T06:20:32;12.30;82.15
71177;DHT22;58877;51.992;4.504;2022-09-21T06:25:28;12.43;82.16
71177;DHT22;58877;51.992;4.504;2022-09-21T06:27:54;12.47;82.06
71177;DHT22;58877;51.992;4.504;2022-09-21T06:30:20;12.47;82.17
71177;DHT22;58877;51.992;4.504;2022-09-21T06:32:46;12.48;82.11
71177;DHT22;58877;51.992;4.504;2022-09-21T06:35:12;12.50;82.06
71177;DHT22;58877;51.992;4.504;2022-09-21T06:37:37;12.48;82.09
71177;DHT22;58877;51.992;4.504;2022-09-21T06:40:05;12.63;82.18
71177;DHT22;58877;51.992;4.504;2022-09-21T06:42:34;12.65;81.93
71177;DHT22;58877;51.992;4.504;2022-09-21T06:45:00;12.67;81.96
71177;DHT22;58877;51.992;4.504;2022-09-21T06:47:28;12.67;82.07
71177;DHT22;58877;51.992;4.504;2022-09-21T06:49:53;12.78;82.11
71177;DHT22;58877;51.992;4.504;2022-09-21T06:52:19;12.83;82.29
71177;DHT22;58877;51.992;4.504;2022-09-21T06:54:45;12.89;82.33
71177;DHT22;58877;51.992;4.504;2022-09-21T06:57:11;12.98;82.17
71177;DHT22;58877;51.992;4.504;2022-09-21T06:59:37;13.05;81.95
71177;DHT22;58877;51.992;4.504;2022-09-21T07:02:02;13.16;82.14
71177;DHT22;58877;51.992;4.504;2022-09-21T07:04:28;13.30;82.25
71177;DHT22;58877;51.992;4.504;2022-09-21T07:06:54;13.50;81.99
71177;DHT22;58877;51.992;4.504;2022-09-21T07:09:19;13.63;81.85
71177;DHT22;58877;51.992;4.504;2022-09-21T07:11:45;13.66;81.58
71177;DHT22;58877;51.992;4.504;2022-09-21T07:14:11;13.69;81.47
71177;DHT22;58877;51.992;4.504;2022-09-21T07:16:38;13.79;81.39
71177;DHT22;58877;51.992;4.504;2022-09-21T07:19:04;13.81;81.00
71177;DHT22;58877;51.992;4.504;2022-09-21T07:21:30;13.93;80.61
71177;DHT22;58877;51.992;4.504;2022-09-21T07:23:58;14.03;80.40
71177;DHT22;58877;51.992;4.504;2022-09-21T07:26:25;14.11;79.72
71177;DHT22;58877;51.992;4.504;2022-09-21T07:28:50;14.23;79.28
71177;DHT22;58877;51.992;4.504;2022-09-21T07:31:16;14.31;78.84
71177;DHT22;58877;51.992;4.504;2022-09-21T07:33:43;14.42;78.66
71177;DHT22;58877;51.992;4.504;2022-09-21T07:36:12;14.60;78.21
71177;DHT22;58877;51.992;4.504;2022-09-21T07:38:42;14.81;77.20
71177;DHT22;58877;51.992;4.504;2022-09-21T07:41:13;14.98;76.96
71177;DHT22;58877;51.992;4.504;2022-09-21T07:43:40;15.12;75.71
71177;DHT22;58877;51.992;4.504;2022-09-21T07:46:11;15.23;75.05
71177;DHT22;58877;51.992;4.504;2022-09-21T07:48:37;15.38;74.39
71177;DHT22;58877;51.992;4.504;2022-09-21T07:51:06;15.49;73.29
71177;DHT22;58877;51.992;4.504;2022-09-21T07:53:37;15.64;72.46
71177;DHT22;58877;51.992;4.504;2022-09-21T07:56:09;15.76;71.76
71177;DHT22;58877;51.992;4.504;2022-09-21T07:58:36;15.86;70.92
71177;DHT22;58877;51.992;4.504;2022-09-21T08:01:21;15.84;70.30
71177;DHT22;58877;51.992;4.504;2022-09-21T08:03:52;15.83;69.91
71177;DHT22;58877;51.992;4.504;2022-09-21T08:06:18;15.93;69.57
71177;DHT22;58877;51.992;4.504;2022-09-21T08:08:45;16.07;69.35
71177;DHT22;58877;51.992;4.504;2022-09-21T08:11:13;16.18;69.10
71177;DHT22;58877;51.992;4.504;2022-09-21T08:13:39;16.37;68.08
71177;DHT22;58877;51.992;4.504;2022-09-21T08:16:05;16.32;68.14
71177;DHT22;58877;51.992;4.504;2022-09-21T08:18:30;16.37;66.94
71177;DHT22;58877;51.992;4.504;2022-09-21T08:20:58;16.41;66.46
71177;DHT22;58877;51.992;4.504;2022-09-21T08:23:25;16.45;66.06
71177;DHT22;58877;51.992;4.504;2022-09-21T08:25:58;16.48;64.54
71177;DHT22;58877;51.992;4.504;2022-09-21T08:28:26;16.40;65.12
71177;DHT22;58877;51.992;4.504;2022-09-21T08:30:51;16.41;64.48
71177;DHT22;58877;51.992;4.504;2022-09-21T08:33:17;16.45;63.99
71177;DHT22;58877;51.992;4.504;2022-09-21T08:35:51;16.47;65.23
71177;DHT22;58877;51.992;4.504;2022-09-21T08:38:17;16.48;64.76
71177;DHT22;58877;51.992;4.504;2022-09-21T08:40:43;16.64;64.24
71177;DHT22;58877;51.992;4.504;2022-09-21T08:43:14;16.86;63.63
71177;DHT22;58877;51.992;4.504;2022-09-21T08:45:43;16.96;63.44
71177;DHT22;58877;51.992;4.504;2022-09-21T08:48:20;17.10;62.16
71177;DHT22;58877;51.992;4.504;2022-09-21T08:50:54;17.22;61.29
71177;DHT22;58877;51.992;4.504;2022-09-21T08:53:43;17.33;61.25
71177;DHT22;58877;51.992;4.504;2022-09-21T08:56:14;17.49;61.26
71177;DHT22;58877;51.992;4.504;2022-09-21T08:58:41;17.44;59.57
71177;DHT22;58877;51.992;4.504;2022-09-21T09:04:08;17.66;60.76
71177;DHT22;58877;51.992;4.504;2022-09-21T09:07:05;17.85;60.45
71177;DHT22;58877;51.992;4.504;2022-09-21T09:17:38;18.12;57.70
71177;DHT22;58877;51.992;4.504;2022-09-21T09:20:20;18.19;57.56
71177;DHT22;58877;51.992;4.504;2022-09-21T09:25:35;18.25;53.95
71177;DHT22;58877;51.992;4.504;2022-09-21T09:30:56;18.18;57.08
71177;DHT22;58877;51.992;4.504;2022-09-21T09:33:29;18.35;55.81
71177;DHT22;58877;51.992;4.504;2022-09-21T09:36:01;18.51;55.93
71177;DHT22;58877;51.992;4.504;2022-09-21T09:52:16;18.14;52.67
71177;DHT22;58877;51.992;4.504;2022-09-21T09:54:42;18.25;54.47
71177;DHT22;58877;51.992;4.504;2022-09-21T09:57:09;18.32;54.04
71177;DHT22;58877;51.992;4.504;2022-09-21T09:59:57;18.52;51.82
71177;DHT22;58877;51.992;4.504;2022-09-21T10:02:26;18.47;52.04
71177;DHT22;58877;51.992;4.504;2022-09-21T10:05:03;18.59;49.23
71177;DHT22;58877;51.992;4.504;2022-09-21T10:10:02;18.12;51.17
71177;DHT22;58877;51.992;4.504;2022-09-21T10:12:29;18.24;54.32
71177;DHT22;58877;51.992;4.504;2022-09-21T10:14:57;18.48;53.89
71177;DHT22;58877;51.992;4.504;2022-09-21T10:17:26;18.69;51.85
71177;DHT22;58877;51.992;4.504;2022-09-21T10:20:02;18.77;50.04
71177;DHT22;58877;51.992;4.504;2022-09-21T10:22:30;18.88;50.49
71177;DHT22;58877;51.992;4.504;2022-09-21T10:24:57;18.56;49.73
71177;DHT22;58877;51.992;4.504;2022-09-21T10:27:35;18.66;51.77
71177;DHT22;58877;51.992;4.504;2022-09-21T10:30:02;18.75;53.63
71177;DHT22;58877;51.992;4.504;2022-09-21T10:32:31;18.59;54.28
71177;DHT22;58877;51.992;4.504;2022-09-21T10:37:43;18.90;51.93
71177;DHT22;58877;51.992;4.504;2022-09-21T10:40:28;18.98;52.53
71177;DHT22;58877;51.992;4.504;2022-09-21T10:42:59;18.99;48.68
71177;DHT22;58877;51.992;4.504;2022-09-21T10:45:31;19.00;50.52
71177;DHT22;58877;51.992;4.504;2022-09-21T10:48:09;19.06;51.41
71177;DHT22;58877;51.992;4.504;2022-09-21T10:50:43;19.38;52.11
71177;DHT22;58877;51.992;4.504;2022-09-21T10:55:47;19.57;48.62
71177;DHT22;58877;51.992;4.504;2022-09-21T10:58:16;19.55;49.10
71177;DHT22;58877;51.992;4.504;2022-09-21T11:00:49;19.61;49.38
71177;DHT22;58877;51.992;4.504;2022-09-21T11:03:36;19.74;50.03
71177;DHT22;58877;51.992;4.504;2022-09-21T11:09:21;19.49;48.35
71177;DHT22;58877;51.992;4.504;2022-09-21T11:11:49;19.55;49.42
71177;DHT22;58877;51.992;4.504;2022-09-21T11:14:44;19.82;49.96
71177;DHT22;58877;51.992;4.504;2022-09-21T11:20:19;20.19;48.96
71177;DHT22;58877;51.992;4.504;2022-09-21T11:36:48;19.99;45.52
71177;DHT22;58877;51.992;4.504;2022-09-21T11:45:01;20.42;48.27
71177;DHT22;58877;51.992;4.504;2022-09-21T11:47:59;20.62;47.34
71177;DHT22;58877;51.992;4.504;2022-09-21T11:53:39;20.66;41.90
71177;DHT22;58877;51.992;4.504;2022-09-21T11:56:34;20.62;43.70
71177;DHT22;58877;51.992;4.504;2022-09-21T11:59:25;20.75;44.57
71177;DHT22;58877;51.992;4.504;2022-09-21T12:02:27;20.93;46.12
71177;DHT22;58877;51.992;4.504;2022-09-21T12:05:28;21.24;44.25
71177;DHT22;58877;51.992;4.504;2022-09-21T12:11:38;21.27;43.45
71177;DHT22;58877;51.992;4.504;2022-09-21T12:16:35;21.17;44.45
71177;DHT22;58877;51.992;4.504;2022-09-21T12:19:12;21.24;44.05
71177;DHT22;58877;51.992;4.504;2022-09-21T12:22:00;21.28;43.10
71177;DHT22;58877;51.992;4.504;2022-09-21T12:24:34;21.13;41.31
71177;DHT22;58877;51.992;4.504;2022-09-21T12:27:16;21.28;44.60
71177;DHT22;58877;51.992;4.504;2022-09-21T12:29:49;21.30;41.61
71177;DHT22;58877;51.992;4.504;2022-09-21T12:32:25;21.10;41.11
71177;DHT22;58877;51.992;4.504;2022-09-21T12:35:01;20.60;42.83
71177;DHT22;58877;51.992;4.504;2022-09-21T12:37:50;20.65;44.45
71177;DHT22;58877;51.992;4.504;2022-09-21T12:40:27;20.62;42.15
71177;DHT22;58877;51.992;4.504;2022-09-21T12:45:55;20.43;44.02
71177;DHT22;58877;51.992;4.504;2022-09-21T12:48:32;20.80;45.66
71177;DHT22;58877;51.992;4.504;2022-09-21T12:51:12;21.17;47.17
71177;DHT22;58877;51.992;4.504;2022-09-21T12:53:46;21.26;45.92
71177;DHT22;58877;51.992;4.504;2022-09-21T12:59:29;20.79;45.83
71177;DHT22;58877;51.992;4.504;2022-09-21T13:13:22;19.79;47.65
71177;DHT22;58877;51.992;4.504;2022-09-21T13:15:50;19.78;49.16
71177;DHT22;58877;51.992;4.504;2022-09-21T13:18:30;19.82;47.83
71177;DHT22;58877;51.992;4.504;2022-09-21T13:21:00;20.01;49.82
71177;DHT22;58877;51.992;4.504;2022-09-21T13:23:36;19.99;46.73
71177;DHT22;58877;51.992;4.504;2022-09-21T13:26:09;19.98;47.95
71177;DHT22;58877;51.992;4.504;2022-09-21T13:31:51;20.53;46.29
71177;DHT22;58877;51.992;4.504;2022-09-21T13:34:24;20.55;42.68
71177;DHT22;58877;51.992;4.504;2022-09-21T13:45:47;20.99;44.77
71177;DHT22;58877;51.992;4.504;2022-09-21T13:47:50;21.06;43.86
71177;DHT22;58877;51.992;4.504;2022-09-21T13:50:30;20.96;44.26
71177;DHT22;58877;51.992;4.504;2022-09-21T13:53:00;20.94;44.58
71177;DHT22;58877;51.992;4.504;2022-09-21T13:55:30;21.07;44.46
71177;DHT22;58877;51.992;4.504;2022-09-21T13:58:05;20.96;44.96
71177;DHT22;58877;51.992;4.504;2022-09-21T14:03:24;20.38;46.65
71177;DHT22;58877;51.992;4.504;2022-09-21T14:06:13;20.18;46.53
71177;DHT22;58877;51.992;4.504;2022-09-21T14:11:37;19.97;45.80
71177;DHT22;58877;51.992;4.504;2022-09-21T14:24:42;19.81;47.12
71177;DHT22;58877;51.992;4.504;2022-09-21T14:30:02;19.92;47.04
71177;DHT22;58877;51.992;4.504;2022-09-21T14:32:36;19.89;46.73
71177;DHT22;58877;51.992;4.504;2022-09-21T14:35:19;20.02;46.61
71177;DHT22;58877;51.992;4.504;2022-09-21T14:37:51;20.17;46.55
71177;DHT22;58877;51.992;4.504;2022-09-21T14:40:21;20.25;42.70
71177;DHT22;58877;51.992;4.504;2022-09-21T14:42:53;20.14;47.10
71177;DHT22;58877;51.992;4.504;2022-09-21T14:45:40;20.08;47.92
71177;DHT22;58877;51.992;4.504;2022-09-21T14:51:13;19.94;45.79
71177;DHT22;58877;51.992;4.504;2022-09-21T14:56:59;19.85;48.12
71177;DHT22;58877;51.992;4.504;2022-09-21T15:02:22;19.78;47.81
71177;DHT22;58877;51.992;4.504;2022-09-21T15:05:08;19.70;47.03
71177;DHT22;58877;51.992;4.504;2022-09-21T15:08:06;21.35;46.70
71177;DHT22;58877;51.992;4.504;2022-09-21T15:21:45;25.03;36.41
71177;DHT22;58877;51.992;4.504;2022-09-21T15:24:21;25.10;35.64
71177;DHT22;58877;51.992;4.504;2022-09-21T15:26:50;24.77;35.71
71177;DHT22;58877;51.992;4.504;2022-09-21T15:29:26;24.40;36.82
71177;DHT22;58877;51.992;4.504;2022-09-21T15:31:53;24.36;37.17
71177;DHT22;58877;51.992;4.504;2022-09-21T15:34:20;24.15;37.50
71177;DHT22;58877;51.992;4.504;2022-09-21T15:36:47;23.74;37.24
71177;DHT22;58877;51.992;4.504;2022-09-21T15:39:29;23.64;37.86
71177;DHT22;58877;51.992;4.504;2022-09-21T15:44:45;23.57;37.30
71177;DHT22;58877;51.992;4.504;2022-09-21T15:47:19;23.10;38.00
71177;DHT22;58877;51.992;4.504;2022-09-21T15:49:45;22.43;40.00
71177;DHT22;58877;51.992;4.504;2022-09-21T15:52:36;22.11;43.66
71177;DHT22;58877;51.992;4.504;2022-09-21T15:55:17;22.26;41.84
71177;DHT22;58877;51.992;4.504;2022-09-21T15:57:51;21.68;43.17
71177;DHT22;58877;51.992;4.504;2022-09-21T16:00:20;21.24;42.97
71177;DHT22;58877;51.992;4.504;2022-09-21T16:03:15;20.90;45.58
71177;DHT22;58877;51.992;4.504;2022-09-21T16:05:50;20.46;45.78
71177;DHT22;58877;51.992;4.504;2022-09-21T16:11:26;20.11;46.12
71177;DHT22;58877;51.992;4.504;2022-09-21T16:14:16;19.97;48.46
71177;DHT22;58877;51.992;4.504;2022-09-21T16:22:25;20.21;48.08
71177;DHT22;58877;51.992;4.504;2022-09-21T16:24:57;20.73;48.74
71177;DHT22;58877;51.992;4.504;2022-09-21T16:27:26;21.11;48.03
71177;DHT22;58877;51.992;4.504;2022-09-21T16:29:53;21.33;45.65
71177;DHT22;58877;51.992;4.504;2022-09-21T16:32:31;21.35;47.41
71177;DHT22;58877;51.992;4.504;2022-09-21T16:35:25;21.27;47.91
71177;DHT22;58877;51.992;4.504;2022-09-21T16:37:56;21.11;49.49
71177;DHT22;58877;51.992;4.504;2022-09-21T16:40:29;20.84;49.27
71177;DHT22;58877;51.992;4.504;2022-09-21T16:42:55;20.66;50.41
71177;DHT22;58877;51.992;4.504;2022-09-21T16:45:27;20.38;50.03
71177;DHT22;58877;51.992;4.504;2022-09-21T16:47:53;20.02;49.51
71177;DHT22;58877;51.992;4.504;2022-09-21T16:50:20;19.68;51.83
71177;DHT22;58877;51.992;4.504;2022-09-21T16:52:45;19.37;51.31
71177;DHT22;58877;51.992;4.504;2022-09-21T16:55:15;19.04;52.91
71177;DHT22;58877;51.992;4.504;2022-09-21T16:57:41;18.77;53.46
71177;DHT22;58877;51.992;4.504;2022-09-21T17:00:15;18.58;53.16
71177;DHT22;58877;51.992;4.504;2022-09-21T17:02:45;18.41;54.82
71177;DHT22;58877;51.992;4.504;2022-09-21T17:07:40;18.11;55.37
71177;DHT22;58877;51.992;4.504;2022-09-21T17:10:14;17.93;55.40
71177;DHT22;58877;51.992;4.504;2022-09-21T17:12:40;17.77;57.34
71177;DHT22;58877;51.992;4.504;2022-09-21T17:15:07;17.63;57.46
71177;DHT22;58877;51.992;4.504;2022-09-21T17:17:34;17.51;57.55
71177;DHT22;58877;51.992;4.504;2022-09-21T17:20:07;17.44;58.58
71177;DHT22;58877;51.992;4.504;2022-09-21T17:22:38;17.27;59.10
71177;DHT22;58877;51.992;4.504;2022-09-21T17:25:04;17.12;58.54
71177;DHT22;58877;51.992;4.504;2022-09-21T17:27:29;17.08;57.92
71177;DHT22;58877;51.992;4.504;2022-09-21T17:29:56;16.99;59.45
71177;DHT22;58877;51.992;4.504;2022-09-21T17:32:24;16.86;59.64
71177;DHT22;58877;51.992;4.504;2022-09-21T17:34:59;16.72;60.38
71177;DHT22;58877;51.992;4.504;2022-09-21T17:37:25;16.56;60.71
71177;DHT22;58877;51.992;4.504;2022-09-21T17:39:51;16.51;60.60
71177;DHT22;58877;51.992;4.504;2022-09-21T17:42:22;16.41;60.72
71177;DHT22;58877;51.992;4.504;2022-09-21T17:45:24;16.27;60.31
71177;DHT22;58877;51.992;4.504;2022-09-21T17:47:51;16.18;60.60
71177;DHT22;58877;51.992;4.504;2022-09-21T17:50:21;16.07;60.50
71177;DHT22;58877;51.992;4.504;2022-09-21T17:52:48;16.03;61.46
71177;DHT22;58877;51.992;4.504;2022-09-21T17:55:33;15.94;60.82
71177;DHT22;58877;51.992;4.504;2022-09-21T18:00:42;15.81;61.76
71177;DHT22;58877;51.992;4.504;2022-09-21T18:03:20;15.73;62.03
71177;DHT22;58877;51.992;4.504;2022-09-21T18:05:48;15.66;62.63
71177;DHT22;58877;51.992;4.504;2022-09-21T18:08:16;15.59;63.51
71177;DHT22;58877;51.992;4.504;2022-09-21T18:11:38;15.51;63.68
71177;DHT22;58877;51.992;4.504;2022-09-21T18:24:46;15.12;65.58
71177;DHT22;58877;51.992;4.504;2022-09-21T18:27:12;15.03;65.99
71177;DHT22;58877;51.992;4.504;2022-09-21T18:29:38;14.95;66.66
71177;DHT22;58877;51.992;4.504;2022-09-21T18:37:47;14.99;67.06
71177;DHT22;58877;51.992;4.504;2022-09-21T18:43:41;15.12;66.35
71177;DHT22;58877;51.992;4.504;2022-09-21T18:52:10;14.88;66.63
71177;DHT22;58877;51.992;4.504;2022-09-21T18:54:38;14.82;67.13
71177;DHT22;58877;51.992;4.504;2022-09-21T18:57:11;14.68;66.89
71177;DHT22;58877;51.992;4.504;2022-09-21T18:59:37;14.54;67.43
71177;DHT22;58877;51.992;4.504;2022-09-21T19:02:12;14.44;67.74
71177;DHT22;58877;51.992;4.504;2022-09-21T19:04:43;14.42;68.27
71177;DHT22;58877;51.992;4.504;2022-09-21T19:07:36;14.28;68.56
71177;DHT22;58877;51.992;4.504;2022-09-21T19:12:54;14.10;69.17
71177;DHT22;58877;51.992;4.504;2022-09-21T19:15:38;14.13;69.36
71177;DHT22;58877;51.992;4.504;2022-09-21T19:24:25;13.86;70.63
71177;DHT22;58877;51.992;4.504;2022-09-21T19:32:30;13.60;71.98
71177;DHT22;58877;51.992;4.504;2022-09-21T19:35:07;13.55;72.50
71177;DHT22;58877;51.992;4.504;2022-09-21T19:37:36;13.48;72.86
71177;DHT22;58877;51.992;4.504;2022-09-21T19:40:02;13.39;73.02
71177;DHT22;58877;51.992;4.504;2022-09-21T19:48:08;13.29;74.60
71177;DHT22;58877;51.992;4.504;2022-09-21T19:50:53;13.32;74.26
71177;DHT22;58877;51.992;4.504;2022-09-21T19:53:24;13.25;74.02
71177;DHT22;58877;51.992;4.504;2022-09-21T19:56:12;13.19;74.02
71177;DHT22;58877;51.992;4.504;2022-09-21T19:58:56;13.15;74.05
71177;DHT22;58877;51.992;4.504;2022-09-21T20:01:52;13.08;74.01
71177;DHT22;58877;51.992;4.504;2022-09-21T20:21:37;12.71;75.28
71177;DHT22;58877;51.992;4.504;2022-09-21T20:25:14;12.68;75.41
71177;DHT22;58877;51.992;4.504;2022-09-21T20:27:32;12.63;75.79
71177;DHT22;58877;51.992;4.504;2022-09-21T20:30:11;12.63;75.72
71177;DHT22;58877;51.992;4.504;2022-09-21T20:32:42;12.63;75.78